createdAt,value
2023-02-13T00:02:07.377Z,15.73
2023-02-13T00:07:11.814Z,14.15
2023-02-13T00:12:13.487Z,14.63
2023-02-13T00:17:15.100Z,14.43
2023-02-13T00:22:16.818Z,13.75
2023-02-13T00:27:18.616Z,16.40
2023-02-13T00:32:20.260Z,16.83
2023-02-13T00:37:21.969Z,19.23
2023-02-13T00:42:26.819Z,20.65
2023-02-13T00:47:28.460Z,23.20
2023-02-13T00:52:30.102Z,20.48
2023-02-13T00:57:31.988Z,21.13
2023-02-13T01:02:36.183Z,17.75
2023-02-13T01:07:37.803Z,17.98
2023-02-13T01:12:40.483Z,20.95
2023-02-13T01:17:42.186Z,20.70
2023-02-13T01:22:44.670Z,22.05
2023-02-13T01:27:46.492Z,22.77
2023-02-13T01:32:49.713Z,21.65
2023-02-13T01:37:51.402Z,23.80
2023-02-13T01:42:52.998Z,21.30
2023-02-13T01:48:07.887Z,23.60
2023-02-13T01:53:14.452Z,21.75
2023-02-13T01:58:20.839Z,21.02
2023-02-13T02:03:37.689Z,21.85
2023-02-13T02:08:44.456Z,20.27
2023-02-13T02:13:53.087Z,23.65
2023-02-13T02:19:14.104Z,20.48
2023-02-13T02:24:48.084Z,22.73
2023-02-13T02:30:28.351Z,23.10
2023-02-13T02:35:30.406Z,21.52
2023-02-13T02:40:39.940Z,23.23
2023-02-13T02:45:57.062Z,22.77
2023-02-13T02:51:19.660Z,23.50
2023-02-13T02:56:31.151Z,22.27
2023-02-13T03:01:53.355Z,22.65
2023-02-13T03:06:59.924Z,22.35
2023-02-13T03:12:20.930Z,21.73
2023-02-13T03:17:41.186Z,21.80
2023-02-13T03:23:00.000Z,21.75
2023-02-13T03:28:37.996Z,20.88
2023-02-13T03:33:54.318Z,23.27
2023-02-13T03:39:07.190Z,23.33
2023-02-13T03:44:13.850Z,24.75
2023-02-13T03:50:00.570Z,23.80
2023-02-13T03:55:33.952Z,24.58
2023-02-13T04:00:43.312Z,23.30
2023-02-13T04:05:50.173Z,23.05
2023-02-13T04:11:28.250Z,23.73
2023-02-13T04:16:41.149Z,24.17
2023-02-13T04:21:42.789Z,26.08
2023-02-13T04:26:45.803Z,23.63
2023-02-13T04:31:47.533Z,23.48
2023-02-13T04:36:49.220Z,22.80
2023-02-13T04:41:50.903Z,24.08
2023-02-13T04:46:52.621Z,20.77
2023-02-13T04:51:54.310Z,21.27
2023-02-13T04:56:55.906Z,21.67
2023-02-13T05:01:59.279Z,20.48
2023-02-13T05:07:01.039Z,21.17
2023-02-13T05:12:02.682Z,20.45
2023-02-13T05:17:04.624Z,21.38
2023-02-13T05:22:25.083Z,21.40
2023-02-13T05:27:26.780Z,22.20
2023-02-13T05:32:28.378Z,19.10
2023-02-13T05:37:30.578Z,19.20
2023-02-13T05:42:35.199Z,18.48
2023-02-13T05:47:37.276Z,19.08
2023-02-13T05:52:39.239Z,17.98
2023-02-13T05:57:42.891Z,18.08
2023-02-13T06:02:44.744Z,17.85
2023-02-13T06:07:46.377Z,20.45
2023-02-13T06:12:47.981Z,18.73
2023-02-13T06:17:49.632Z,17.92
2023-02-13T06:22:51.786Z,18.58
2023-02-13T06:27:53.843Z,18.48
2023-02-13T06:32:55.571Z,20.95
2023-02-13T06:37:57.212Z,20.05
2023-02-13T06:42:58.894Z,20.75
2023-02-13T06:48:00.488Z,20.13
2023-02-13T06:53:02.197Z,19.15
2023-02-13T06:58:03.908Z,18.10
2023-02-13T07:03:06.577Z,20.02
2023-02-13T07:08:09.916Z,19.27
2023-02-13T07:13:11.546Z,19.70
2023-02-13T07:18:13.165Z,19.00
2023-02-13T07:23:14.785Z,20.63
2023-02-13T07:28:16.445Z,20.30
2023-02-13T07:33:18.427Z,19.52
2023-02-13T07:38:20.114Z,21.00
2023-02-13T07:43:21.710Z,21.33
2023-02-13T07:48:24.416Z,22.67
2023-02-13T07:53:26.090Z,22.25
2023-02-13T07:58:27.721Z,20.98
2023-02-13T08:03:29.371Z,20.67
2023-02-13T08:08:31.344Z,23.35
2023-02-13T08:13:33.111Z,22.08
2023-02-13T08:18:34.886Z,20.67
2023-02-13T08:23:36.580Z,20.20
2023-02-13T08:28:38.470Z,22.77
2023-02-13T08:33:41.609Z,21.98
2023-02-13T08:38:43.225Z,22.52
2023-02-13T08:43:45.799Z,21.55
2023-02-13T08:48:47.414Z,21.67
2023-02-13T08:53:49.076Z,22.25
2023-02-13T08:58:50.880Z,23.77
2023-02-13T09:03:52.818Z,24.08
2023-02-13T09:08:54.500Z,26.02
2023-02-13T09:13:56.324Z,24.65
2023-02-13T09:18:58.064Z,24.00
2023-02-13T09:23:59.767Z,24.20
2023-02-13T09:29:01.412Z,22.42
2023-02-13T09:34:03.072Z,24.48
2023-02-13T09:39:04.690Z,20.77
2023-02-13T09:44:12.403Z,21.73
2023-02-13T09:49:21.237Z,20.75
2023-02-13T09:54:23.099Z,21.17
2023-02-13T09:59:47.265Z,21.25
2023-02-13T10:05:03.805Z,18.23
2023-02-13T10:10:30.662Z,20.00
2023-02-13T10:15:44.297Z,17.92
2023-02-13T10:20:52.936Z,17.02
2023-02-13T10:26:12.417Z,16.23
2023-02-13T10:31:17.813Z,16.42
2023-02-13T10:36:24.423Z,15.82
2023-02-13T10:41:42.983Z,14.60
2023-02-13T10:47:01.888Z,14.13
2023-02-13T10:52:22.834Z,12.05
2023-02-13T10:57:49.908Z,14.40
2023-02-13T11:02:51.857Z,12.48
2023-02-13T11:07:53.409Z,12.73
2023-02-13T11:12:55.519Z,12.30
2023-02-13T11:18:01.130Z,11.50
2023-02-13T11:23:24.123Z,11.63
2023-02-13T11:28:29.503Z,9.73
2023-02-13T11:33:31.187Z,8.38
2023-02-13T11:38:33.322Z,8.40
2023-02-13T11:43:46.639Z,8.43
2023-02-13T11:49:14.294Z,8.90
2023-02-13T11:54:35.612Z,8.10
2023-02-13T11:59:43.344Z,7.72
2023-02-13T12:04:46.081Z,7.72
2023-02-13T12:09:57.594Z,7.15
2023-02-13T12:15:03.521Z,6.78
2023-02-13T12:20:06.904Z,6.45
2023-02-13T12:26:00.397Z,7.07
2023-02-13T12:31:27.256Z,8.30
2023-02-13T12:36:47.299Z,7.55
2023-02-13T12:42:07.049Z,7.30
2023-02-13T12:47:29.684Z,7.03
2023-02-13T12:52:42.918Z,6.30
2023-02-13T12:58:12.542Z,5.20
2023-02-13T13:03:34.592Z,4.57
2023-02-13T13:08:49.835Z,5.45
2023-02-13T13:14:26.770Z,5.43
2023-02-13T13:19:40.612Z,4.70
2023-02-13T13:24:53.763Z,6.03
2023-02-13T13:29:59.332Z,6.03
2023-02-13T13:35:02.174Z,5.82
2023-02-13T13:40:28.073Z,5.95
2023-02-13T13:45:39.040Z,6.80
2023-02-13T13:50:42.637Z,6.57
2023-02-13T13:55:47.559Z,7.15
2023-02-13T14:01:23.174Z,8.55
2023-02-13T14:06:44.379Z,11.27
2023-02-13T14:11:47.322Z,8.15
2023-02-13T14:16:49.395Z,8.60
2023-02-13T14:21:51.095Z,8.77
2023-02-13T14:27:05.128Z,9.13
2023-02-13T14:32:19.111Z,8.90
2023-02-13T14:37:30.311Z,8.38
2023-02-13T14:42:33.991Z,9.00
2023-02-13T14:47:43.047Z,10.15
2023-02-13T14:52:47.815Z,9.25
2023-02-13T14:57:53.856Z,8.98
2023-02-13T15:03:01.518Z,10.23
2023-02-13T15:08:14.003Z,9.25
2023-02-13T15:13:23.162Z,11.35
2023-02-13T15:18:30.612Z,10.23
2023-02-13T15:23:34.742Z,10.40
2023-02-13T15:28:36.816Z,10.75
2023-02-13T15:33:47.360Z,12.27
2023-02-13T15:38:49.032Z,10.75
2023-02-13T15:43:55.932Z,11.73
2023-02-13T15:49:00.763Z,11.00
2023-02-13T15:54:05.534Z,12.32
2023-02-13T15:59:07.236Z,12.45
2023-02-13T16:04:12.355Z,12.50
2023-02-13T16:09:27.293Z,13.20
2023-02-13T16:14:31.852Z,13.27
2023-02-13T16:20:04.884Z,14.27
2023-02-13T16:25:12.613Z,14.55
2023-02-13T16:30:37.319Z,13.50
2023-02-13T16:35:42.722Z,13.30
2023-02-13T16:40:44.881Z,15.45
2023-02-13T16:45:46.801Z,14.55
2023-02-13T16:50:55.687Z,14.40
2023-02-13T16:56:01.302Z,15.25
2023-02-13T17:01:04.975Z,16.98
2023-02-13T17:06:06.714Z,15.90
2023-02-13T17:11:17.753Z,17.00
2023-02-13T17:16:19.422Z,18.92
2023-02-13T17:21:21.096Z,19.60
2023-02-13T17:26:22.701Z,19.58
2023-02-13T17:31:24.526Z,19.40
2023-02-13T17:36:26.228Z,20.52
2023-02-13T17:41:27.870Z,20.77
2023-02-13T17:46:29.563Z,20.55
2023-02-13T17:51:31.982Z,20.65
2023-02-13T17:56:33.624Z,18.05
2023-02-13T18:01:35.252Z,20.65
2023-02-13T18:06:36.899Z,21.20
2023-02-13T18:11:38.511Z,20.55
2023-02-13T18:16:40.113Z,22.38
2023-02-13T18:21:41.817Z,20.30
2023-02-13T18:26:43.425Z,22.35
2023-02-13T18:31:45.084Z,21.67
2023-02-13T18:36:47.941Z,21.60
2023-02-13T18:41:49.545Z,20.67
2023-02-13T18:46:51.247Z,21.08
2023-02-13T18:51:52.896Z,21.05
2023-02-13T18:56:54.582Z,20.60
2023-02-13T19:01:56.420Z,20.13
2023-02-13T19:06:58.244Z,21.48
2023-02-13T19:11:59.877Z,21.10
2023-02-13T19:17:01.903Z,23.88
2023-02-13T19:22:03.626Z,21.98
2023-02-13T19:27:05.246Z,22.02
2023-02-13T19:32:06.901Z,25.75
2023-02-13T19:37:08.510Z,23.08
2023-02-13T19:42:10.133Z,21.77
2023-02-13T19:47:11.767Z,21.08
2023-02-13T19:52:13.454Z,19.70
2023-02-13T19:57:16.205Z,19.73
2023-02-13T20:02:18.942Z,19.85
2023-02-13T20:07:20.565Z,18.98
2023-02-13T20:12:23.023Z,19.00
2023-02-13T20:17:24.702Z,19.17
2023-02-13T20:22:26.430Z,20.45
2023-02-13T20:27:28.027Z,16.48
2023-02-13T20:32:29.756Z,16.75
2023-02-13T20:37:32.399Z,17.00
2023-02-13T20:42:34.438Z,17.23
2023-02-13T20:47:36.050Z,17.20
2023-02-13T20:52:37.940Z,18.15
2023-02-13T20:57:39.613Z,18.98
2023-02-13T21:02:41.322Z,19.95
2023-02-13T21:07:43.118Z,19.20
2023-02-13T21:12:44.794Z,19.60
2023-02-13T21:17:46.414Z,21.52
2023-02-13T21:22:48.064Z,18.50
2023-02-13T21:27:49.738Z,21.15
2023-02-13T21:32:51.333Z,18.27
2023-02-13T21:37:52.966Z,17.52
2023-02-13T21:42:54.697Z,19.38
2023-02-13T21:47:56.694Z,19.02
2023-02-13T21:52:58.607Z,18.90
2023-02-13T21:58:00.232Z,19.15
2023-02-13T22:03:01.949Z,19.38
2023-02-13T22:08:12.621Z,18.77
2023-02-13T22:13:14.226Z,19.42
2023-02-13T22:18:15.851Z,19.92
2023-02-13T22:23:17.489Z,21.38
2023-02-13T22:28:19.111Z,20.58
2023-02-13T22:33:20.797Z,22.08
2023-02-13T22:38:22.408Z,22.13
2023-02-13T22:43:24.045Z,22.77
2023-02-13T22:48:25.743Z,22.95
2023-02-13T22:53:27.347Z,22.92
2023-02-13T22:58:29.048Z,22.60
2023-02-13T23:03:32.940Z,22.77
2023-02-13T23:08:35.586Z,22.23
2023-02-13T23:13:37.202Z,21.75
2023-02-13T23:18:38.803Z,22.10
2023-02-13T23:23:40.453Z,21.88
2023-02-13T23:28:42.321Z,22.38
2023-02-13T23:33:43.921Z,21.48
2023-02-13T23:38:46.606Z,21.08
2023-02-13T23:43:48.211Z,21.17
2023-02-13T23:48:49.827Z,21.52
2023-02-13T23:53:54.991Z,22.77
2023-02-13T23:58:56.890Z,20.73
